Observation data for Saint Lawrence on 02/22/2019      Previous  Date  Next       Current Mesonet Observations  Soil Data  Daily Summary Page  Observations in Plain Language
KST1 220600Z 12014KT 06/02 A2986 RMK A01 T00560017  RH  077%=      5-min Rain = 0
KST1 220605Z 12012KT 06/02 A2986 RMK A01 T00550017  RH  077%=      5-min Rain = 0
KST1 220610Z 12014KT 06/02 A2986 RMK A01 T00560019  RH  078%=      5-min Rain = 0
KST1 220615Z 12014KT 06/02 A2986 RMK A01 T00580020  RH  078%=      5-min Rain = 0
KST1 220620Z 12014KT 06/02 A2986 RMK A01 T00560019  RH  078%=      5-min Rain = 0
KST1 220625Z 12014KT 06/02 A2985 RMK A01 T00560019  RH  078%=      5-min Rain = 0
KST1 220630Z 12015KT 06/02 A2985 RMK A01 T00550020  RH  079%=      5-min Rain = 0
KST1 220635Z 12016KT 06/02 A2985 RMK A01 T00560020  RH  079%=      5-min Rain = 0
KST1 220640Z 12015KT 05/02 A2985 RMK A01 T00540020  RH  079%=      5-min Rain = 0
KST1 220645Z 12013KT 05/02 A2984 RMK A01 T00530019  RH  080%=      5-min Rain = 0
KST1 220650Z 12013KT 05/02 A2984 RMK A01 T00520019  RH  080%=      5-min Rain = 0
KST1 220655Z 13014KT 05/02 A2984 RMK A01 T00510019  RH  081%=      5-min Rain = 0
KST1 220700Z 12014KT 05/02 A2984 RMK A01 T00500019  RH  081%=      5-min Rain = 0
KST1 220705Z 13013KT 05/02 A2984 RMK A01 T00500019  RH  082%=      5-min Rain = 0
KST1 220710Z 13013KT 05/02 A2984 RMK A01 T00480018  RH  082%=      5-min Rain = 0
KST1 220715Z 13013KT 05/02 A2984 RMK A01 T00470018  RH  083%=      5-min Rain = 0
KST1 220720Z 13012KT 05/02 A2984 RMK A01 T00460018  RH  083%=      5-min Rain = 0
KST1 220725Z 13012KT 05/02 A2984 RMK A01 T00450018  RH  084%=      5-min Rain = 0
KST1 220730Z 13012KT 04/02 A2983 RMK A01 T00440017  RH  084%=      5-min Rain = 0
KST1 220735Z 13012KT 04/02 A2983 RMK A01 T00420016  RH  084%=      5-min Rain = 0
KST1 220740Z 13011KT 04/02 A2983 RMK A01 T00410016  RH  085%=      5-min Rain = 0
KST1 220745Z 13012KT 04/02 A2983 RMK A01 T00400016  RH  085%=      5-min Rain = 0
KST1 220750Z 13011KT 04/02 A2984 RMK A01 T00400017  RH  085%=      5-min Rain = 0
KST1 220755Z 13012KT 04/02 A2984 RMK A01 T00400017  RH  086%=      5-min Rain = 0
KST1 220800Z 13012KT 04/02 A2983 RMK A01 T00400017  RH  086%=      5-min Rain = 0
KST1 220805Z 13013KT 04/02 A2983 RMK A01 T00390017  RH  086%=      5-min Rain = 0
KST1 220810Z 13012KT 04/02 A2983 RMK A01 T00380017  RH  087%=      5-min Rain = 0
KST1 220815Z 13012KT 04/02 A2983 RMK A01 T00380016  RH  087%=      5-min Rain = 0
KST1 220820Z 13013KT 04/02 A2983 RMK A01 T00370017  RH  088%=      5-min Rain = 0
KST1 220825Z 13012KT 04/02 A2983 RMK A01 T00370017  RH  088%=      5-min Rain = 0
KST1 220830Z 13011KT 04/02 A2983 RMK A01 T00360017  RH  088%=      5-min Rain = 0
KST1 220835Z 13009KT 04/02 A2983 RMK A01 T00350016  RH  088%=      5-min Rain = 0
KST1 220840Z 13009KT 03/02 A2983 RMK A01 T00340015  RH  089%=      5-min Rain = 0
KST1 220845Z 13010KT 03/02 A2983 RMK A01 T00340016  RH  089%=      5-min Rain = 0
KST1 220850Z 13011KT 04/02 A2983 RMK A01 T00350017  RH  089%=      5-min Rain = 0
KST1 220855Z 13011KT 04/02 A2983 RMK A01 T00350018  RH  089%=      5-min Rain = 0
KST1 220900Z 13012KT 04/02 A2983 RMK A01 T00360018  RH  089%=      5-min Rain = 0
KST1 220905Z 12011KT 04/02 A2983 RMK A01 T00360019  RH  090%=      5-min Rain = 0
KST1 220910Z 12011KT 04/02 A2984 RMK A01 T00360019  RH  090%=      5-min Rain = 0
KST1 220915Z 13010KT 04/02 A2984 RMK A01 T00370020  RH  090%=      5-min Rain = 0
KST1 220920Z 12010KT 04/02 A2984 RMK A01 T00370020  RH  090%=      5-min Rain = 0
KST1 220925Z 13010KT 04/02 A2984 RMK A01 T00370021  RH  090%=      5-min Rain = 0
KST1 220930Z 13010KT 04/02 A2984 RMK A01 T00380022  RH  091%=      5-min Rain = 0
KST1 220935Z 13011KT 04/02 A2984 RMK A01 T00380023  RH  091%=      5-min Rain = 0
KST1 220940Z 13010KT 04/03 A2984 RMK A01 T00400025  RH  091%=      5-min Rain = 0
KST1 220945Z 13010KT 05/03 A2984 RMK A01 T00450030  RH  091%=      5-min Rain = 0
KST1 220950Z 13012KT 05/03 A2984 RMK A01 T00500034  RH  091%=      5-min Rain = 0
KST1 220955Z 13013KT 05/04 A2984 RMK A01 T00540037  RH  090%=      5-min Rain = 0
KST1 221000Z 13013KT 06/04 A2984 RMK A01 T00570038  RH  089%=      5-min Rain = 0
KST1 221005Z 13011KT 06/04 A2984 RMK A01 T00580039  RH  089%=      5-min Rain = 0
KST1 221010Z 13012KT 06/04 A2984 RMK A01 T00590040  RH  089%=      5-min Rain = 0
KST1 221015Z 13013KT 06/04 A2984 RMK A01 T00610041  RH  089%=      5-min Rain = 0
KST1 221020Z 14013KT 06/04 A2984 RMK A01 T00610041  RH  088%=      5-min Rain = 0
KST1 221025Z 14013KT 06/04 A2984 RMK A01 T00600042  RH  089%=      5-min Rain = 0
KST1 221030Z 14012KT 06/04 A2984 RMK A01 T00600042  RH  090%=      5-min Rain = 0
KST1 221035Z 15009KT 06/04 A2985 RMK A01 T00590043  RH  091%=      5-min Rain = 0
KST1 221040Z 17006KT 06/04 A2986 RMK A01 T00580044  RH  092%=      5-min Rain = 0
KST1 221045Z 15008KT 06/05 A2986 RMK A01 T00580045  RH  093%=      5-min Rain = 0
KST1 221050Z 16006KT 06/05 A2986 RMK A01 T00580047  RH  094%=      5-min Rain = 0
KST1 221055Z 16007KT 06/05 A2986 RMK A01 T00580048  RH  095%=      5-min Rain = 0
KST1 221100Z 17006KT 06/05 A2987 RMK A01 T00580049  RH  095%=      5-min Rain = 0
KST1 221105Z 16005KT 06/05 A2986 RMK A01 T00580049  RH  096%=      5-min Rain = 0
KST1 221110Z 15004KT 06/05 A2986 RMK A01 T00580051  RH  096%=      5-min Rain = 0
KST1 221115Z 13005KT 06/05 A2986 RMK A01 T00580051  RH  097%=      5-min Rain = 0
KST1 221120Z 12001KT 06/05 A2987 RMK A01 T00590052  RH  097%=      5-min Rain = 0
KST1 221125Z 11004KT 06/05 A2986 RMK A01 T00590053  RH  097%=      5-min Rain = 0
KST1 221130Z 10005KT 06/05 A2986 RMK A01 T00590053  RH  098%=      5-min Rain = 0
KST1 221135Z 10003KT 06/05 A2987 RMK A01 T00590054  RH  098%=      5-min Rain = 0
KST1 221140Z 11006KT 06/06 A2987 RMK A01 T00600055  RH  098%=      5-min Rain = 0
KST1 221145Z 12004KT 06/06 A2987 RMK A01 T00600055  RH  098%=      5-min Rain = 0
KST1 221150Z 13003KT 06/06 A2988 RMK A01 T00600056  RH  099%=      5-min Rain = 0
KST1 221155Z 13005KT 06/06 A2987 RMK A01 T00600056  RH  099%=      5-min Rain = 0
KST1 221200Z 13004KT 06/06 A2988 RMK A01 T00610057  RH  099%=      5-min Rain = 0
KST1 221205Z 12004KT 06/06 A2988 RMK A01 T00610058  RH  099%=      5-min Rain = 0
KST1 221210Z 13005KT 06/06 A2988 RMK A01 T00620059  RH  099%=      5-min Rain = 0
KST1 221215Z 14006KT 06/06 A2988 RMK A01 T00640061  RH  100%=      5-min Rain = 0
KST1 221220Z 14007KT 07/06 A2988 RMK A01 T00650063  RH  100%=      5-min Rain = 0
KST1 221225Z 16007G12KT 07/07 A2988 RMK A01 T00710068  RH  100%=      5-min Rain = 0
KST1 221230Z 16012KT 09/08 A2988 RMK A01 T00850083  RH  100%=      5-min Rain = 0
KST1 221235Z 16012KT 09/09 A2988 RMK A01 T00880086  RH  100%=      5-min Rain = 0
KST1 221240Z 17014KT 09/09 A2988 RMK A01 T00900087  RH  100%=      5-min Rain = 0
KST1 221245Z 17014KT 09/09 A2988 RMK A01 T00910089  RH  100%=      5-min Rain = 0
KST1 221250Z 17014KT 09/09 A2988 RMK A01 T00930089  RH  099%=      5-min Rain = 0
KST1 221255Z 17014KT 09/09 A2988 RMK A01 T00940087  RH  097%=      5-min Rain = 0
KST1 221300Z 17014KT 09/09 A2988 RMK A01 T00940085  RH  095%=      5-min Rain = 0
KST1 221305Z 16013KT 09/08 A2988 RMK A01 T00940083  RH  095%=      5-min Rain = 0
KST1 221310Z 16014KT 10/08 A2988 RMK A01 T00950083  RH  094%=      5-min Rain = 0
KST1 221315Z 16014KT 10/08 A2988 RMK A01 T00950083  RH  094%=      5-min Rain = 0
KST1 221320Z 17014KT 10/08 A2989 RMK A01 T00960082  RH  093%=      5-min Rain = 0
KST1 221325Z 17015KT 10/08 A2989 RMK A01 T00960082  RH  092%=      5-min Rain = 0
KST1 221330Z 17014KT 10/08 A2989 RMK A01 T00970081  RH  092%=      5-min Rain = 0
KST1 221335Z 17015KT 10/08 A2989 RMK A01 T00980082  RH  091%=      5-min Rain = 0
KST1 221340Z 17014KT 10/08 A2989 RMK A01 T00980081  RH  091%=      5-min Rain = 0
KST1 221345Z 17014KT 10/08 A2989 RMK A01 T00980081  RH  091%=      5-min Rain = 0
KST1 221350Z 16012KT 10/08 A2989 RMK A01 T00980081  RH  091%=      5-min Rain = 0
KST1 221355Z 16011KT 10/08 A2989 RMK A01 T00970082  RH  092%=      5-min Rain = 0
KST1 221400Z 17014KT 10/08 A2989 RMK A01 T00980083  RH  091%=      5-min Rain = 0
KST1 221405Z 17014KT 10/08 A299 RMK A01 T00990081  RH  090%=      5-min Rain = 0
KST1 221410Z 17014KT 10/08 A299 RMK A01 T00990081  RH  090%=      5-min Rain = 0
KST1 221415Z 17014G19KT 10/08 A299 RMK A01 T01000081  RH  089%=      5-min Rain = 0
KST1 221420Z 17013G18KT 10/08 A2991 RMK A01 T01010081  RH  089%=      5-min Rain = 0
KST1 221425Z 17013KT 10/08 A2991 RMK A01 T01020081  RH  088%=      5-min Rain = 0
KST1 221430Z 17014KT 10/08 A2992 RMK A01 T01020081  RH  088%=      5-min Rain = 0
KST1 221435Z 17014KT 10/08 A2992 RMK A01 T01030081  RH  088%=      5-min Rain = 0
KST1 221440Z 17015KT 10/08 A2992 RMK A01 T01040081  RH  087%=      5-min Rain = 0
KST1 221445Z 17014KT 10/08 A2993 RMK A01 T01040081  RH  087%=      5-min Rain = 0
KST1 221450Z 17016KT 11/08 A2993 RMK A01 T01050080  RH  086%=      5-min Rain = 0
KST1 221455Z 17017KT 11/08 A2993 RMK A01 T01060079  RH  085%=      5-min Rain = 0
KST1 221500Z 17015KT 11/08 A2993 RMK A01 T01060079  RH  085%=      5-min Rain = 0
KST1 221505Z 17017G22KT 11/08 A2993 RMK A01 T01070079  RH  084%=      5-min Rain = 0
KST1 221510Z 17017KT 11/08 A2993 RMK A01 T01080078  RH  083%=      5-min Rain = 0
KST1 221515Z 17015KT 11/08 A2993 RMK A01 T01080078  RH  083%=      5-min Rain = 0
KST1 221520Z 17015G21KT 11/08 A2993 RMK A01 T01130081  RH  082%=      5-min Rain = 0
KST1 221525Z 16016KT 12/08 A2993 RMK A01 T01170081  RH  080%=      5-min Rain = 0
KST1 221530Z 17016KT 12/08 A2993 RMK A01 T01190080  RH  078%=      5-min Rain = 0
KST1 221535Z 16015KT 12/08 A2993 RMK A01 T01200080  RH  078%=      5-min Rain = 0
KST1 221540Z 16014KT 12/08 A2993 RMK A01 T01220081  RH  077%=      5-min Rain = 0
KST1 221545Z 16013KT 12/08 A2993 RMK A01 T01240081  RH  076%=      5-min Rain = 0
KST1 221550Z 15014KT 13/08 A2993 RMK A01 T01290082  RH  074%=      5-min Rain = 0
KST1 221555Z 15013KT 13/08 A2993 RMK A01 T01300081  RH  073%=      5-min Rain = 0
KST1 221600Z 16012KT 13/08 A2993 RMK A01 T01310081  RH  073%=      5-min Rain = 0
KST1 221605Z 17013KT 13/08 A2993 RMK A01 T01330077  RH  070%=      5-min Rain = 0
KST1 221610Z 18013KT 13/08 A2993 RMK A01 T01320076  RH  069%=      5-min Rain = 0
KST1 221615Z 18013G18KT 13/08 A2992 RMK A01 T01340076  RH  069%=      5-min Rain = 0
KST1 221620Z 17013KT 14/08 A2992 RMK A01 T01370077  RH  068%=      5-min Rain = 0
KST1 221625Z 17012G17KT 14/08 A2992 RMK A01 T01390077  RH  067%=      5-min Rain = 0
KST1 221630Z 17012KT 14/08 A2992 RMK A01 T01440078  RH  065%=      5-min Rain = 0
KST1 221635Z 17012KT 14/07 A2992 RMK A01 T01440074  RH  064%=      5-min Rain = 0
KST1 221640Z 18012KT 14/07 A2992 RMK A01 T01420072  RH  063%=      5-min Rain = 0
KST1 221645Z 18012KT 15/07 A2992 RMK A01 T01480072  RH  061%=      5-min Rain = 0
KST1 221650Z 18012KT 15/07 A2991 RMK A01 T01500069  RH  060%=      5-min Rain = 0
KST1 221655Z 20011KT 15/07 A2991 RMK A01 T01490067  RH  059%=      5-min Rain = 0
KST1 221700Z 18011G16KT 15/07 A2991 RMK A01 T01530068  RH  058%=      5-min Rain = 0
KST1 221705Z 18011KT 16/07 A2991 RMK A01 T01560067  RH  056%=      5-min Rain = 0
KST1 221710Z 19010G15KT 16/07 A2991 RMK A01 T01570065  RH  055%=      5-min Rain = 0
KST1 221715Z 19010KT 16/06 A2991 RMK A01 T01560064  RH  055%=      5-min Rain = 0
KST1 221720Z 18011KT 16/07 A299 RMK A01 T01610066  RH  054%=      5-min Rain = 0
KST1 221725Z 18011KT 16/06 A299 RMK A01 T01640062  RH  052%=      5-min Rain = 0
KST1 221730Z 18010KT 17/06 A299 RMK A01 T01660060  RH  050%=      5-min Rain = 0
KST1 221735Z 19011KT 17/06 A2989 RMK A01 T01680055  RH  048%=      5-min Rain = 0
KST1 221740Z 20010G15KT 17/05 A2989 RMK A01 T01700051  RH  046%=      5-min Rain = 0
KST1 221745Z 20011KT 17/05 A2989 RMK A01 T01710051  RH  046%=      5-min Rain = 0
KST1 221750Z 19009G14KT 17/06 A2989 RMK A01 T01720056  RH  047%=      5-min Rain = 0
KST1 221755Z 19009KT 17/05 A2988 RMK A01 T01720051  RH  045%=      5-min Rain = 0
KST1 221800Z 20010G16KT 18/04 A2988 RMK A01 T01750044  RH  042%=      5-min Rain = 0
KST1 221805Z 20010KT 18/05 A2988 RMK A01 T01760049  RH  044%=      5-min Rain = 0
KST1 221810Z 19010G15KT 18/05 A2988 RMK A01 T01820051  RH  042%=      5-min Rain = 0
KST1 221815Z 19011KT 18/05 A2988 RMK A01 T01810045  RH  041%=      5-min Rain = 0
KST1 221820Z 20010KT 18/04 A2988 RMK A01 T01790041  RH  040%=      5-min Rain = 0
KST1 221825Z 19011G16KT 18/04 A2988 RMK A01 T01800042  RH  041%=      5-min Rain = 0
KST1 221830Z 22009KT 19/04 A2988 RMK A01 T01850040  RH  039%=      5-min Rain = 0
KST1 221835Z 20010G15KT 19/04 A2988 RMK A01 T01860038  RH  038%=      5-min Rain = 0
KST1 221840Z 21008G14KT 19/04 A2987 RMK A01 T01850039  RH  039%=      5-min Rain = 0
KST1 221845Z 21009G14KT 19/03 A2987 RMK A01 T01880034  RH  036%=      5-min Rain = 0
KST1 221850Z 20010G17KT 19/04 A2987 RMK A01 T01890041  RH  038%=      5-min Rain = 0
KST1 221855Z 20009G17KT 19/03 A2987 RMK A01 T01870034  RH  037%=      5-min Rain = 0
KST1 221900Z 19008G14KT 19/04 A2986 RMK A01 T01900041  RH  038%=      5-min Rain = 0
KST1 221905Z 20010G16KT 20/04 A2986 RMK A01 T01960038  RH  036%=      5-min Rain = 0
KST1 221910Z 21013G20KT 20/03 A2985 RMK A01 T01950029  RH  034%=      5-min Rain = 0
KST1 221915Z 19010G17KT 19/03 A2985 RMK A01 T01940031  RH  034%=      5-min Rain = 0
KST1 221920Z 19011G17KT 20/03 A2985 RMK A01 T01960033  RH  035%=      5-min Rain = 0
KST1 221925Z 19010G17KT 19/04 A2985 RMK A01 T01940035  RH  035%=      5-min Rain = 0
KST1 221930Z 18012G17KT 20/04 A2984 RMK A01 T01980035  RH  034%=      5-min Rain = 0
KST1 221935Z 19011KT 20/03 A2983 RMK A01 T01980034  RH  034%=      5-min Rain = 0
KST1 221940Z 17010KT 20/04 A2983 RMK A01 T02020035  RH  034%=      5-min Rain = 0
KST1 221945Z 19012G18KT 20/03 A2983 RMK A01 T02000030  RH  033%=      5-min Rain = 0
KST1 221950Z 18012G17KT 20/03 A2982 RMK A01 T02040033  RH  033%=      5-min Rain = 0
KST1 221955Z 16011G18KT 20/04 A2982 RMK A01 T02040035  RH  033%=      5-min Rain = 0
KST1 222000Z 16011G21KT 20/04 A2981 RMK A01 T02030036  RH  033%=      5-min Rain = 0
KST1 222005Z 15013KT 21/03 A2981 RMK A01 T02060031  RH  032%=      5-min Rain = 0
KST1 222010Z 16012KT 21/03 A2981 RMK A01 T02120026  RH  030%=      5-min Rain = 0
KST1 222015Z 17010G16KT 21/02 A298 RMK A01 T02090023  RH  030%=      5-min Rain = 0
KST1 222020Z 18011KT 21/M01 A298 RMK A01 T02111011  RH  023%=      5-min Rain = 0
KST1 222025Z 18011G17KT 22/M01 A298 RMK A01 T02171009  RH  022%=      5-min Rain = 0
KST1 222030Z 18012KT 22/M01 A2979 RMK A01 T02161013  RH  022%=      5-min Rain = 0
KST1 222035Z 18012KT 22/M01 A2979 RMK A01 T02151005  RH  023%=      5-min Rain = 0
KST1 222040Z 18013G18KT 22/M01 A2979 RMK A01 T02191011  RH  022%=      5-min Rain = 0
KST1 222045Z 19012G22KT 22/M01 A2979 RMK A01 T02191009  RH  022%=      5-min Rain = 0
KST1 222050Z 20014G19KT 22/M01 A2979 RMK A01 T02191009  RH  022%=      5-min Rain = 0
KST1 222055Z 20011KT 22/M01 A2978 RMK A01 T02151008  RH  023%=      5-min Rain = 0
KST1 222100Z 17015KT 22/00 A2978 RMK A01 T02200003  RH  024%=      5-min Rain = 0
KST1 222105Z 19012G18KT 22/01 A2978 RMK A01 T02190005  RH  024%=      5-min Rain = 0
KST1 222110Z 19014G19KT 22/01 A2978 RMK A01 T02210007  RH  024%=      5-min Rain = 0
KST1 222115Z 20013G18KT 22/01 A2978 RMK A01 T02190005  RH  025%=      5-min Rain = 0
KST1 222120Z 20011G17KT 22/01 A2977 RMK A01 T02200012  RH  025%=      5-min Rain = 0
KST1 222125Z 19016G21KT 22/00 A2978 RMK A01 T02230004  RH  024%=      5-min Rain = 0
KST1 222130Z 19015KT 22/01 A2977 RMK A01 T02200005  RH  024%=      5-min Rain = 0
KST1 222135Z 20012KT 22/00 A2977 RMK A01 T02180004  RH  024%=      5-min Rain = 0
KST1 222140Z 21010G15KT 22/00 A2977 RMK A01 T02230004  RH  024%=      5-min Rain = 0
KST1 222145Z 19012G18KT 22/00 A2976 RMK A01 T022400-0  RH  023%=      5-min Rain = 0
KST1 222150Z 19016G23KT 23/M03 A2976 RMK A01 T02301031  RH  018%=      5-min Rain = 0
KST1 222155Z 21015G20KT 23/M04 A2976 RMK A01 T02291035  RH  017%=      5-min Rain = 0
KST1 222200Z 20014G19KT 23/M03 A2976 RMK A01 T02311033  RH  017%=      5-min Rain = 0
KST1 222205Z 18012KT 23/M03 A2976 RMK A01 T02281025  RH  018%=      5-min Rain = 0
KST1 222210Z 18014G22KT 23/M02 A2975 RMK A01 T02321023  RH  018%=      5-min Rain = 0
KST1 222215Z 17016KT 23/M02 A2975 RMK A01 T02311024  RH  018%=      5-min Rain = 0
KST1 222220Z 18015G20KT 23/M02 A2975 RMK A01 T02291017  RH  019%=      5-min Rain = 0
KST1 222225Z 15014G19KT 23/02 A2975 RMK A01 T02250018  RH  026%=      5-min Rain = 0
KST1 222230Z 14015G20KT 22/02 A2975 RMK A01 T02240017  RH  026%=      5-min Rain = 0
KST1 222235Z 14017G22KT 22/03 A2975 RMK A01 T02220027  RH  028%=      5-min Rain = 0
KST1 222240Z 14016G22KT 22/03 A2975 RMK A01 T02190030  RH  029%=      5-min Rain = 0
KST1 222245Z 13016KT 22/03 A2975 RMK A01 T02200031  RH  029%=      5-min Rain = 0
KST1 222250Z 14017G24KT 22/03 A2975 RMK A01 T02200032  RH  030%=      5-min Rain = 0
KST1 222255Z 14018KT 22/03 A2975 RMK A01 T02190034  RH  030%=      5-min Rain = 0
KST1 222300Z 14018G23KT 22/03 A2975 RMK A01 T02180031  RH  030%=      5-min Rain = 0
KST1 222305Z 14019G24KT 22/03 A2975 RMK A01 T02160031  RH  030%=      5-min Rain = 0
KST1 222310Z 14017KT 22/03 A2975 RMK A01 T02150029  RH  030%=      5-min Rain = 0
KST1 222315Z 15017KT 21/03 A2975 RMK A01 T02130030  RH  030%=      5-min Rain = 0
KST1 222320Z 15015KT 21/03 A2975 RMK A01 T02120026  RH  030%=      5-min Rain = 0
KST1 222325Z 15016KT 21/03 A2975 RMK A01 T02120027  RH  030%=      5-min Rain = 0
KST1 222330Z 15016KT 21/02 A2974 RMK A01 T02120018  RH  028%=      5-min Rain = 0
KST1 222335Z 15016KT 21/01 A2974 RMK A01 T02100014  RH  028%=      5-min Rain = 0
KST1 222340Z 15019KT 21/02 A2974 RMK A01 T02080016  RH  028%=      5-min Rain = 0
KST1 222345Z 16019KT 21/01 A2974 RMK A01 T02070010  RH  027%=      5-min Rain = 0
KST1 222350Z 16018KT 21/01 A2974 RMK A01 T02050010  RH  028%=      5-min Rain = 0
KST1 222355Z 16017KT 20/01 A2974 RMK A01 T02030014  RH  029%=      5-min Rain = 0
KST1 230000Z 15017KT 20/02 A2974 RMK A01 T02020018  RH  030%=      5-min Rain = 0
KST1 230005Z 15017KT 20/02 A2974 RMK A01 T02000018  RH  030%=      5-min Rain = 0
KST1 230010Z 15016KT 20/02 A2974 RMK A01 T01980016  RH  030%=      5-min Rain = 0
KST1 230015Z 15017KT 20/02 A2974 RMK A01 T01960017  RH  031%=      5-min Rain = 0
KST1 230020Z 15015KT 19/02 A2974 RMK A01 T01930018  RH  031%=      5-min Rain = 0
KST1 230025Z 15014KT 19/02 A2974 RMK A01 T01900019  RH  032%=      5-min Rain = 0
KST1 230030Z 15013KT 19/02 A2974 RMK A01 T01880020  RH  033%=      5-min Rain = 0
KST1 230035Z 14013KT 18/02 A2974 RMK A01 T01840020  RH  034%=      5-min Rain = 0
KST1 230040Z 14013KT 18/02 A2974 RMK A01 T01800020  RH  035%=      5-min Rain = 0
KST1 230045Z 14013KT 18/02 A2974 RMK A01 T01750020  RH  036%=      5-min Rain = 0
KST1 230050Z 15015KT 18/02 A2973 RMK A01 T01750023  RH  037%=      5-min Rain = 0
KST1 230055Z 15015KT 17/02 A2973 RMK A01 T01740023  RH  037%=      5-min Rain = 0
KST1 230100Z 15014KT 17/02 A2973 RMK A01 T01710022  RH  037%=      5-min Rain = 0
KST1 230105Z 14015KT 17/02 A2973 RMK A01 T01690022  RH  037%=      5-min Rain = 0
KST1 230110Z 14013KT 17/02 A2973 RMK A01 T01650020  RH  038%=      5-min Rain = 0
KST1 230115Z 13011KT 16/02 A2973 RMK A01 T01580017  RH  039%=      5-min Rain = 0
KST1 230120Z 13011KT 15/02 A2973 RMK A01 T01540017  RH  040%=      5-min Rain = 0
KST1 230125Z 13011KT 15/02 A2972 RMK A01 T01500017  RH  041%=      5-min Rain = 0
KST1 230130Z 13011KT 15/02 A2972 RMK A01 T01480017  RH  042%=      5-min Rain = 0
KST1 230135Z 14012KT 15/02 A2972 RMK A01 T01450018  RH  043%=      5-min Rain = 0
KST1 230140Z 14012KT 14/02 A2972 RMK A01 T01440019  RH  043%=      5-min Rain = 0
KST1 230145Z 14013KT 15/02 A2972 RMK A01 T01450020  RH  043%=      5-min Rain = 0
KST1 230150Z 14013KT 15/02 A2972 RMK A01 T01450019  RH  043%=      5-min Rain = 0
KST1 230155Z 14013KT 14/02 A2972 RMK A01 T01440019  RH  043%=      5-min Rain = 0
KST1 230200Z 13014KT 14/02 A2972 RMK A01 T01440019  RH  043%=      5-min Rain = 0
KST1 230205Z 14015KT 14/02 A2972 RMK A01 T01430019  RH  044%=      5-min Rain = 0
KST1 230210Z 14015KT 14/02 A2972 RMK A01 T01430021  RH  044%=      5-min Rain = 0
KST1 230215Z 14015KT 14/02 A2972 RMK A01 T01440024  RH  045%=      5-min Rain = 0
KST1 230220Z 13015KT 15/03 A2972 RMK A01 T01450026  RH  045%=      5-min Rain = 0
KST1 230225Z 13015KT 14/03 A2972 RMK A01 T01440027  RH  046%=      5-min Rain = 0
KST1 230230Z 13015KT 14/03 A2972 RMK A01 T01440029  RH  047%=      5-min Rain = 0
KST1 230235Z 13014KT 14/03 A2972 RMK A01 T01440031  RH  047%=      5-min Rain = 0
KST1 230240Z 12014KT 14/03 A2972 RMK A01 T01430034  RH  048%=      5-min Rain = 0
KST1 230245Z 12015KT 15/04 A2972 RMK A01 T01450038  RH  049%=      5-min Rain = 0
KST1 230250Z 12015KT 15/04 A2972 RMK A01 T01450040  RH  050%=      5-min Rain = 0
KST1 230255Z 12015G20KT 14/04 A2972 RMK A01 T01440044  RH  051%=      5-min Rain = 0
KST1 230300Z 12016G21KT 14/05 A2972 RMK A01 T01440050  RH  054%=      5-min Rain = 0
KST1 230305Z 12017G22KT 14/05 A2972 RMK A01 T01440054  RH  056%=      5-min Rain = 0
KST1 230310Z 12018KT 14/06 A2971 RMK A01 T01430056  RH  057%=      5-min Rain = 0
KST1 230315Z 12019G24KT 14/06 A2971 RMK A01 T01420057  RH  057%=      5-min Rain = 0
KST1 230320Z 12018KT 14/06 A2971 RMK A01 T01400057  RH  058%=      5-min Rain = 0
KST1 230325Z 12018KT 14/06 A2971 RMK A01 T01400059  RH  059%=      5-min Rain = 0
KST1 230330Z 12017KT 14/06 A297 RMK A01 T01400059  RH  059%=      5-min Rain = 0
KST1 230335Z 12018KT 14/06 A297 RMK A01 T01390060  RH  060%=      5-min Rain = 0
KST1 230340Z 12017KT 14/06 A297 RMK A01 T01380060  RH  060%=      5-min Rain = 0
KST1 230345Z 12018G23KT 14/06 A297 RMK A01 T01380061  RH  060%=      5-min Rain = 0
KST1 230350Z 12018KT 14/06 A297 RMK A01 T01380061  RH  061%=      5-min Rain = 0
KST1 230355Z 12017G22KT 14/06 A297 RMK A01 T01370061  RH  061%=      5-min Rain = 0
KST1 230400Z 13017KT 14/06 A297 RMK A01 T01350061  RH  062%=      5-min Rain = 0
KST1 230405Z 13018G23KT 14/06 A297 RMK A01 T01370062  RH  062%=      5-min Rain = 0
KST1 230410Z 13018G24KT 14/06 A2971 RMK A01 T01360062  RH  062%=      5-min Rain = 0
KST1 230415Z 13017KT 13/06 A2971 RMK A01 T01340062  RH  063%=      5-min Rain = 0
KST1 230420Z 13017KT 13/06 A297 RMK A01 T01320062  RH  063%=      5-min Rain = 0
KST1 230425Z 14017KT 13/06 A2971 RMK A01 T01320063  RH  064%=      5-min Rain = 0
KST1 230430Z 14017KT 13/06 A2971 RMK A01 T01300063  RH  064%=      5-min Rain = 0
KST1 230435Z 15016KT 13/06 A2971 RMK A01 T01280063  RH  065%=      5-min Rain = 0
KST1 230440Z 14018KT 13/06 A297 RMK A01 T01260063  RH  066%=      5-min Rain = 0
KST1 230445Z 14016KT 12/06 A297 RMK A01 T01230062  RH  067%=      5-min Rain = 0
KST1 230450Z 14015KT 12/06 A2971 RMK A01 T01210063  RH  068%=      5-min Rain = 0
KST1 230455Z 13015KT 12/06 A297 RMK A01 T01190063  RH  069%=      5-min Rain = 0
KST1 230500Z 14011KT 12/06 A2972 RMK A01 T01180064  RH  070%=      5-min Rain = 0
KST1 230505Z 14011KT 12/06 A2972 RMK A01 T01160063  RH  071%=      5-min Rain = 0
KST1 230510Z 15011KT 12/06 A2972 RMK A01 T01150064  RH  072%=      5-min Rain = 0
KST1 230515Z 15011KT 12/07 A2972 RMK A01 T01170066  RH  072%=      5-min Rain = 0
KST1 230520Z 16011KT 12/07 A2972 RMK A01 T01200068  RH  071%=      5-min Rain = 0
KST1 230525Z 16014KT 12/07 A2973 RMK A01 T01230070  RH  071%=      5-min Rain = 0
KST1 230530Z 16016KT 13/07 A2972 RMK A01 T01260072  RH  071%=      5-min Rain = 0
KST1 230535Z 16015G20KT 13/07 A2972 RMK A01 T01280074  RH  071%=      5-min Rain = 0
KST1 230540Z 17013KT 13/08 A2973 RMK A01 T01290076  RH  071%=      5-min Rain = 0
KST1 230545Z 16015KT 13/08 A2972 RMK A01 T01300079  RH  072%=      5-min Rain = 0
KST1 230550Z 16018G23KT 13/08 A2972 RMK A01 T01320084  RH  074%=      5-min Rain = 0
KST1 230555Z 16019G24KT 13/09 A2972 RMK A01 T01340089  RH  075%=      5-min Rain = 0

Page generated in 0.0343 seconds.